Terminal Aerodrome Forecast
Issued by NWS Twin Cities, MN

Home | Current Version | Previous Version | Text Only | Print | Product List | Glossary Off
Versions: 1 2 3 4 5 6 7 8 9 10 11 12 13 14 15

770
FTUS43 KMPX 281139
TAFEAU
TAF
KEAU 281139Z 2812/2912 VRB02KT 2SM BR VV002
      TEMPO 2812/2814 4SM BR BKN004
     FM281400 14004KT 4SM BR BKN008
     FM281600 15007KT P6SM SCT008 BKN012
     FM281700 16005KT P6SM SCT015
     FM290900 16003KT 2SM BR SCT004=

USA.gov is the U.S. government's official web portal to all federal, state and local government web resources and services.